sensor_id;sensor_type;location;lat;lon;timestamp;pressure;altitude;pressure_sealevel;temperature;humidity
72548;BME280;60570;50.848;6.776;2022-08-21T00:00:53;100665.47;;;22.93;54.37
72548;BME280;60570;50.848;6.776;2022-08-21T00:01:54;100667.53;;;22.92;54.45
72548;BME280;60570;50.848;6.776;2022-08-21T00:02:58;100659.03;;;22.92;54.45
72548;BME280;60570;50.848;6.776;2022-08-21T00:04:04;100667.53;;;22.92;54.36
72548;BME280;60570;50.848;6.776;2022-08-21T00:05:05;100661.84;;;22.89;54.58
72548;BME280;60570;50.848;6.776;2022-08-21T00:06:06;100668.75;;;22.88;54.59
72548;BME280;60570;50.848;6.776;2022-08-21T00:07:07;100659.88;;;22.86;54.34
72548;BME280;60570;50.848;6.776;2022-08-21T00:08:08;100659.06;;;22.85;54.50
72548;BME280;60570;50.848;6.776;2022-08-21T00:09:09;100657.81;;;22.90;54.58
72548;BME280;60570;50.848;6.776;2022-08-21T00:10:13;100656.19;;;22.89;54.35
72548;BME280;60570;50.848;6.776;2022-08-21T00:11:14;100658.25;;;22.88;54.43
72548;BME280;60570;50.848;6.776;2022-08-21T00:12:15;100657.84;;;22.86;54.79
72548;BME280;60570;50.848;6.776;2022-08-21T00:13:16;100653.38;;;22.85;54.70
72548;BME280;60570;50.848;6.776;2022-08-21T00:14:16;100657.88;;;22.83;54.29
72548;BME280;60570;50.848;6.776;2022-08-21T00:15:22;100656.25;;;22.82;54.01
72548;BME280;60570;50.848;6.776;2022-08-21T00:16:23;100656.66;;;22.84;54.28
72548;BME280;60570;50.848;6.776;2022-08-21T00:17:23;100649.00;;;22.81;54.55
72548;BME280;60570;50.848;6.776;2022-08-21T00:18:24;100651.75;;;22.88;54.26
72548;BME280;60570;50.848;6.776;2022-08-21T00:19:25;100643.72;;;22.83;53.97
72548;BME280;60570;50.848;6.776;2022-08-21T00:20:26;100650.56;;;22.85;54.10
72548;BME280;60570;50.848;6.776;2022-08-21T00:21:27;100644.88;;;22.85;54.32
72548;BME280;60570;50.848;6.776;2022-08-21T00:22:27;100645.34;;;22.80;54.41
72548;BME280;60570;50.848;6.776;2022-08-21T00:23:28;100646.97;;;22.78;54.48
72548;BME280;60570;50.848;6.776;2022-08-21T00:24:28;100638.47;;;22.78;54.11
72548;BME280;60570;50.848;6.776;2022-08-21T00:25:29;100637.66;;;22.77;54.16
72548;BME280;60570;50.848;6.776;2022-08-21T00:26:29;100640.09;;;22.79;54.40
72548;BME280;60570;50.848;6.776;2022-08-21T00:27:30;100646.97;;;22.78;54.38
72548;BME280;60570;50.848;6.776;2022-08-21T00:28:30;100646.53;;;22.79;54.20
72548;BME280;60570;50.848;6.776;2022-08-21T00:29:31;100642.91;;;22.82;53.96
72548;BME280;60570;50.848;6.776;2022-08-21T00:30:32;100642.94;;;22.79;53.98
72548;BME280;60570;50.848;6.776;2022-08-21T00:31:33;100644.53;;;22.80;54.16
72548;BME280;60570;50.848;6.776;2022-08-21T00:32:36;100640.50;;;22.77;54.29
72548;BME280;60570;50.848;6.776;2022-08-21T00:33:37;100645.75;;;22.75;54.11
72548;BME280;60570;50.848;6.776;2022-08-21T00:34:38;100636.06;;;22.76;54.29
72548;BME280;60570;50.848;6.776;2022-08-21T00:35:40;100638.03;;;22.79;53.82
72548;BME280;60570;50.848;6.776;2022-08-21T00:36:41;100640.50;;;22.74;53.87
72548;BME280;60570;50.848;6.776;2022-08-21T00:37:42;100640.50;;;22.74;54.34
72548;BME280;60570;50.848;6.776;2022-08-21T00:38:42;100636.91;;;22.73;54.11
72548;BME280;60570;50.848;6.776;2022-08-21T00:39:43;100634.03;;;22.77;53.90
72548;BME280;60570;50.848;6.776;2022-08-21T00:40:53;100629.56;;;22.76;53.84
72548;BME280;60570;50.848;6.776;2022-08-21T00:41:54;100632.00;;;22.77;54.00
72548;BME280;60570;50.848;6.776;2022-08-21T00:42:55;100631.63;;;22.72;54.16
72548;BME280;60570;50.848;6.776;2022-08-21T00:43:55;100633.25;;;22.73;53.89
72548;BME280;60570;50.848;6.776;2022-08-21T00:44:56;100627.22;;;22.67;53.93
72548;BME280;60570;50.848;6.776;2022-08-21T00:45:57;100630.06;;;22.67;54.15
72548;BME280;60570;50.848;6.776;2022-08-21T00:46:57;100631.69;;;22.65;53.99
72548;BME280;60570;50.848;6.776;2022-08-21T00:47:58;100634.06;;;22.70;53.99
72548;BME280;60570;50.848;6.776;2022-08-21T00:49:59;100633.28;;;22.66;54.22
72548;BME280;60570;50.848;6.776;2022-08-21T00:51:06;100631.72;;;22.61;54.30
72548;BME280;60570;50.848;6.776;2022-08-21T00:52:11;100623.63;;;22.60;53.98
72548;BME280;60570;50.848;6.776;2022-08-21T00:53:14;100632.09;;;22.63;53.90
72548;BME280;60570;50.848;6.776;2022-08-21T00:54:16;100632.88;;;22.67;53.95
72548;BME280;60570;50.848;6.776;2022-08-21T00:55:18;100635.34;;;22.65;53.85
72548;BME280;60570;50.848;6.776;2022-08-21T00:56:20;100633.34;;;22.59;53.88
72548;BME280;60570;50.848;6.776;2022-08-21T00:57:32;100636.97;;;22.59;53.67
72548;BME280;60570;50.848;6.776;2022-08-21T00:58:33;100634.16;;;22.59;54.07
72548;BME280;60570;50.848;6.776;2022-08-21T00:59:37;100643.00;;;22.65;53.88
72548;BME280;60570;50.848;6.776;2022-08-21T01:00:40;100632.53;;;22.58;53.92
72548;BME280;60570;50.848;6.776;2022-08-21T01:01:41;100630.50;;;22.59;53.81
72548;BME280;60570;50.848;6.776;2022-08-21T01:02:42;100631.31;;;22.56;54.01
72548;BME280;60570;50.848;6.776;2022-08-21T01:03:42;100632.94;;;22.53;53.70
72548;BME280;60570;50.848;6.776;2022-08-21T01:04:43;100632.13;;;22.53;53.92
72548;BME280;60570;50.848;6.776;2022-08-21T01:05:44;100636.59;;;22.54;53.89
72548;BME280;60570;50.848;6.776;2022-08-21T01:06:44;100633.75;;;22.54;53.93
72548;BME280;60570;50.848;6.776;2022-08-21T01:07:44;100631.72;;;22.51;54.07
72548;BME280;60570;50.848;6.776;2022-08-21T01:08:45;100637.41;;;22.51;54.19
72548;BME280;60570;50.848;6.776;2022-08-21T01:09:47;100637.84;;;22.46;54.14
72548;BME280;60570;50.848;6.776;2022-08-21T01:10:48;100632.56;;;22.48;53.92
72548;BME280;60570;50.848;6.776;2022-08-21T01:11:50;100633.34;;;22.48;54.00
72548;BME280;60570;50.848;6.776;2022-08-21T01:12:51;100636.19;;;22.48;54.28
72548;BME280;60570;50.848;6.776;2022-08-21T01:13:53;100637.41;;;22.47;54.23
72548;BME280;60570;50.848;6.776;2022-08-21T01:14:54;100642.25;;;22.54;53.83
72548;BME280;60570;50.848;6.776;2022-08-21T01:15:56;100639.00;;;22.55;53.89
72548;BME280;60570;50.848;6.776;2022-08-21T01:17:00;100633.75;;;22.50;54.16
72548;BME280;60570;50.848;6.776;2022-08-21T01:18:05;100630.53;;;22.48;53.57
72548;BME280;60570;50.848;6.776;2022-08-21T01:19:07;100639.00;;;22.48;53.81
72548;BME280;60570;50.848;6.776;2022-08-21T01:20:10;100641.03;;;22.51;53.71
72548;BME280;60570;50.848;6.776;2022-08-21T01:21:24;100631.31;;;22.52;53.89
72548;BME280;60570;50.848;6.776;2022-08-21T01:22:25;100633.78;;;22.47;54.05
72548;BME280;60570;50.848;6.776;2022-08-21T01:23:26;100634.59;;;22.47;53.85
72548;BME280;60570;50.848;6.776;2022-08-21T01:24:27;100643.50;;;22.46;53.87
72548;BME280;60570;50.848;6.776;2022-08-21T01:25:28;100633.38;;;22.45;54.00
72548;BME280;60570;50.848;6.776;2022-08-21T01:26:31;100629.75;;;22.48;53.65
72548;BME280;60570;50.848;6.776;2022-08-21T01:27:33;100639.47;;;22.43;53.85
72548;BME280;60570;50.848;6.776;2022-08-21T01:28:37;100635.81;;;22.43;53.98
72548;BME280;60570;50.848;6.776;2022-08-21T01:30:01;100642.69;;;22.45;53.49
72548;BME280;60570;50.848;6.776;2022-08-21T01:31:02;100635.41;;;22.48;53.90
72548;BME280;60570;50.848;6.776;2022-08-21T01:32:09;100635.03;;;22.42;53.94
72548;BME280;60570;50.848;6.776;2022-08-21T01:33:13;100636.66;;;22.40;53.85
72548;BME280;60570;50.848;6.776;2022-08-21T01:34:14;100634.22;;;22.42;53.66
72548;BME280;60570;50.848;6.776;2022-08-21T01:35:17;100631.00;;;22.40;53.68
72548;BME280;60570;50.848;6.776;2022-08-21T01:36:18;100634.25;;;22.38;53.70
72548;BME280;60570;50.848;6.776;2022-08-21T01:37:20;100645.53;;;22.42;53.50
72548;BME280;60570;50.848;6.776;2022-08-21T01:38:22;100640.28;;;22.37;53.46
72548;BME280;60570;50.848;6.776;2022-08-21T01:39:23;100634.63;;;22.37;53.93
72548;BME280;60570;50.848;6.776;2022-08-21T01:40:23;100639.09;;;22.38;53.63
72548;BME280;60570;50.848;6.776;2022-08-21T01:41:23;100631.41;;;22.38;53.90
72548;BME280;60570;50.848;6.776;2022-08-21T01:42:24;100634.25;;;22.38;53.31
72548;BME280;60570;50.848;6.776;2022-08-21T01:43:25;100628.97;;;22.37;53.62
72548;BME280;60570;50.848;6.776;2022-08-21T01:44:26;100631.78;;;22.37;53.99
72548;BME280;60570;50.848;6.776;2022-08-21T01:45:26;100638.31;;;22.34;53.71
72548;BME280;60570;50.848;6.776;2022-08-21T01:46:27;100636.69;;;22.29;54.02
72548;BME280;60570;50.848;6.776;2022-08-21T01:47:27;100635.47;;;22.34;53.62
72548;BME280;60570;50.848;6.776;2022-08-21T01:48:28;100631.03;;;22.29;53.84
72548;BME280;60570;50.848;6.776;2022-08-21T01:49:28;100629.44;;;22.28;53.91
72548;BME280;60570;50.848;6.776;2022-08-21T01:50:29;100633.84;;;22.33;53.72
72548;BME280;60570;50.848;6.776;2022-08-21T01:51:30;100628.59;;;22.31;53.64
72548;BME280;60570;50.848;6.776;2022-08-21T01:52:31;100625.38;;;22.29;53.96
72548;BME280;60570;50.848;6.776;2022-08-21T01:53:32;100630.66;;;22.31;53.62
72548;BME280;60570;50.848;6.776;2022-08-21T01:54:36;100623.34;;;22.33;53.75
72548;BME280;60570;50.848;6.776;2022-08-21T01:55:36;100624.53;;;22.36;53.72
72548;BME280;60570;50.848;6.776;2022-08-21T01:56:39;100622.94;;;22.31;53.39
72548;BME280;60570;50.848;6.776;2022-08-21T01:57:40;100626.53;;;22.39;53.24
72548;BME280;60570;50.848;6.776;2022-08-21T01:58:43;100629.00;;;22.29;53.48
72548;BME280;60570;50.848;6.776;2022-08-21T01:59:44;100626.59;;;22.28;53.58
72548;BME280;60570;50.848;6.776;2022-08-21T02:00:45;100620.97;;;22.24;54.05
72548;BME280;60570;50.848;6.776;2022-08-21T02:01:45;100616.50;;;22.23;53.62
72548;BME280;60570;50.848;6.776;2022-08-21T02:02:46;100627.00;;;22.23;53.25
72548;BME280;60570;50.848;6.776;2022-08-21T02:03:46;100619.34;;;22.23;53.79
72548;BME280;60570;50.848;6.776;2022-08-21T02:04:47;100627.81;;;22.27;53.35
72548;BME280;60570;50.848;6.776;2022-08-21T02:05:47;100624.56;;;22.25;53.46
72548;BME280;60570;50.848;6.776;2022-08-21T02:06:48;100620.16;;;22.24;53.39
72548;BME280;60570;50.848;6.776;2022-08-21T02:07:51;100621.75;;;22.25;53.58
72548;BME280;60570;50.848;6.776;2022-08-21T02:08:52;100621.75;;;22.25;53.50
72548;BME280;60570;50.848;6.776;2022-08-21T02:09:52;100629.06;;;22.22;53.66
72548;BME280;60570;50.848;6.776;2022-08-21T02:10:53;100621.75;;;22.25;53.50
72548;BME280;60570;50.848;6.776;2022-08-21T02:11:53;100622.16;;;22.23;53.52
72548;BME280;60570;50.848;6.776;2022-08-21T02:12:55;100625.03;;;22.20;53.54
72548;BME280;60570;50.848;6.776;2022-08-21T02:13:56;100631.50;;;22.20;53.62
72548;BME280;60570;50.848;6.776;2022-08-21T02:14:56;100623.41;;;22.19;53.52
72548;BME280;60570;50.848;6.776;2022-08-21T02:15:57;100623.41;;;22.19;53.62
72548;BME280;60570;50.848;6.776;2022-08-21T02:16:57;100623.78;;;22.21;53.51
72548;BME280;60570;50.848;6.776;2022-08-21T02:18:00;100620.13;;;22.27;53.14
72548;BME280;60570;50.848;6.776;2022-08-21T02:19:01;100617.28;;;22.27;53.31
72548;BME280;60570;50.848;6.776;2022-08-21T02:20:02;100616.50;;;22.23;53.24
72548;BME280;60570;50.848;6.776;2022-08-21T02:21:04;100612.88;;;22.19;53.35
72548;BME280;60570;50.848;6.776;2022-08-21T02:22:05;100616.56;;;22.16;53.26
72548;BME280;60570;50.848;6.776;2022-08-21T02:23:07;100619.38;;;22.16;53.26
72548;BME280;60570;50.848;6.776;2022-08-21T02:24:08;100614.09;;;22.22;53.15
72548;BME280;60570;50.848;6.776;2022-08-21T02:25:10;100613.69;;;22.23;53.22
72548;BME280;60570;50.848;6.776;2022-08-21T02:26:11;100617.72;;;22.26;52.97
72548;BME280;60570;50.848;6.776;2022-08-21T02:27:12;100611.66;;;22.24;53.32
72548;BME280;60570;50.848;6.776;2022-08-21T02:28:14;100612.47;;;22.21;52.97
72548;BME280;60570;50.848;6.776;2022-08-21T02:29:15;100616.56;;;22.13;53.33
72548;BME280;60570;50.848;6.776;2022-08-21T02:30:23;100621.03;;;22.10;53.46
72548;BME280;60570;50.848;6.776;2022-08-21T02:31:24;100614.53;;;22.13;52.87
72548;BME280;60570;50.848;6.776;2022-08-21T02:32:25;100623.00;;;22.17;53.03
72548;BME280;60570;50.848;6.776;2022-08-21T02:33:26;100618.16;;;22.14;53.22
72548;BME280;60570;50.848;6.776;2022-08-21T02:34:27;100617.34;;;22.13;53.29
72548;BME280;60570;50.848;6.776;2022-08-21T02:35:27;100614.53;;;22.10;53.38
72548;BME280;60570;50.848;6.776;2022-08-21T02:36:28;100616.19;;;22.11;53.14
72548;BME280;60570;50.848;6.776;2022-08-21T02:37:28;100613.31;;;22.14;53.05
72548;BME280;60570;50.848;6.776;2022-08-21T02:38:32;100616.97;;;22.15;53.09
72548;BME280;60570;50.848;6.776;2022-08-21T02:39:33;100610.91;;;22.13;53.22
72548;BME280;60570;50.848;6.776;2022-08-21T02:40:36;100611.69;;;22.13;53.04
72548;BME280;60570;50.848;6.776;2022-08-21T02:41:37;100604.06;;;22.07;53.29
72548;BME280;60570;50.848;6.776;2022-08-21T02:42:38;100606.91;;;22.07;53.02
72548;BME280;60570;50.848;6.776;2022-08-21T02:43:40;100615.00;;;22.01;53.26
72548;BME280;60570;50.848;6.776;2022-08-21T02:44:41;100608.50;;;22.04;53.45
72548;BME280;60570;50.848;6.776;2022-08-21T02:45:43;100612.16;;;22.05;53.09
72548;BME280;60570;50.848;6.776;2022-08-21T02:46:44;100606.91;;;22.07;53.12
72548;BME280;60570;50.848;6.776;2022-08-21T02:47:53;100614.16;;;22.04;53.20
72548;BME280;60570;50.848;6.776;2022-08-21T02:48:54;100606.47;;;22.08;53.18
72548;BME280;60570;50.848;6.776;2022-08-21T02:49:55;100611.31;;;22.08;53.11
72548;BME280;60570;50.848;6.776;2022-08-21T02:50:58;100612.94;;;22.09;53.06
72548;BME280;60570;50.848;6.776;2022-08-21T02:51:59;100607.28;;;22.09;53.11
72548;BME280;60570;50.848;6.776;2022-08-21T02:53:00;100610.94;;;22.06;53.19
72548;BME280;60570;50.848;6.776;2022-08-21T02:54:01;100609.72;;;22.03;52.90
72548;BME280;60570;50.848;6.776;2022-08-21T02:55:02;100610.94;;;22.06;52.90
72548;BME280;60570;50.848;6.776;2022-08-21T02:56:05;100608.50;;;22.04;52.96
72548;BME280;60570;50.848;6.776;2022-08-21T02:57:06;100606.53;;;22.01;52.96
72548;BME280;60570;50.848;6.776;2022-08-21T02:58:07;100610.56;;;21.97;53.28
72548;BME280;60570;50.848;6.776;2022-08-21T02:59:08;100606.94;;;21.96;53.29
72548;BME280;60570;50.848;6.776;2022-08-21T03:00:09;100603.69;;;22.01;53.14
72548;BME280;60570;50.848;6.776;2022-08-21T03:01:12;100609.72;;;22.00;52.72
72548;BME280;60570;50.848;6.776;2022-08-21T03:02:13;100609.72;;;22.00;53.34
72548;BME280;60570;50.848;6.776;2022-08-21T03:03:13;100609.34;;;22.01;52.96
72548;BME280;60570;50.848;6.776;2022-08-21T03:04:14;100611.78;;;21.99;52.71
72548;BME280;60570;50.848;6.776;2022-08-21T03:05:15;100608.13;;;21.99;53.09
72548;BME280;60570;50.848;6.776;2022-08-21T03:06:18;100606.50;;;22.05;52.75
72548;BME280;60570;50.848;6.776;2022-08-21T03:07:18;100608.94;;;22.03;52.99
72548;BME280;60570;50.848;6.776;2022-08-21T03:08:19;100615.78;;;22.02;53.18
72548;BME280;60570;50.848;6.776;2022-08-21T03:09:20;100608.50;;;22.04;52.63
72548;BME280;60570;50.848;6.776;2022-08-21T03:10:21;100608.13;;;21.99;52.83
72548;BME280;60570;50.848;6.776;2022-08-21T03:11:22;100606.53;;;21.94;53.01
72548;BME280;60570;50.848;6.776;2022-08-21T03:12:23;100606.53;;;21.91;52.92
72548;BME280;60570;50.848;6.776;2022-08-21T03:13:23;100606.94;;;21.96;52.85
72548;BME280;60570;50.848;6.776;2022-08-21T03:14:24;100606.53;;;21.94;52.77
72548;BME280;60570;50.848;6.776;2022-08-21T03:15:24;100606.13;;;21.92;52.98
72548;BME280;60570;50.848;6.776;2022-08-21T03:16:25;100606.13;;;21.92;52.80
72548;BME280;60570;50.848;6.776;2022-08-21T03:17:28;100605.34;;;21.88;52.98
72548;BME280;60570;50.848;6.776;2022-08-21T03:18:28;100607.38;;;21.91;52.79
72548;BME280;60570;50.848;6.776;2022-08-21T03:19:28;100606.97;;;21.89;53.00
72548;BME280;60570;50.848;6.776;2022-08-21T03:20:29;100600.91;;;21.87;52.93
72548;BME280;60570;50.848;6.776;2022-08-21T03:21:31;100599.69;;;21.88;53.04
72548;BME280;60570;50.848;6.776;2022-08-21T03:22:31;100604.53;;;21.91;52.95
72548;BME280;60570;50.848;6.776;2022-08-21T03:23:32;100608.56;;;21.90;52.99
72548;BME280;60570;50.848;6.776;2022-08-21T03:24:32;100604.13;;;21.93;52.56
72548;BME280;60570;50.848;6.776;2022-08-21T03:25:34;100602.09;;;21.86;53.08
72548;BME280;60570;50.848;6.776;2022-08-21T03:26:35;100602.09;;;21.90;52.75
72548;BME280;60570;50.848;6.776;2022-08-21T03:27:35;100597.66;;;21.89;52.67
72548;BME280;60570;50.848;6.776;2022-08-21T03:28:36;100592.81;;;21.82;53.01
72548;BME280;60570;50.848;6.776;2022-08-21T03:29:37;100600.09;;;21.80;52.98
72548;BME280;60570;50.848;6.776;2022-08-21T03:30:38;100601.31;;;21.86;52.80
72548;BME280;60570;50.848;6.776;2022-08-21T03:31:38;100601.72;;;21.84;52.90
72548;BME280;60570;50.848;6.776;2022-08-21T03:32:39;100604.56;;;21.81;52.65
72548;BME280;60570;50.848;6.776;2022-08-21T03:33:41;100600.09;;;21.83;53.03
72548;BME280;60570;50.848;6.776;2022-08-21T03:34:41;100609.78;;;21.79;53.02
72548;BME280;60570;50.848;6.776;2022-08-21T03:35:44;100606.97;;;21.82;52.80
72548;BME280;60570;50.848;6.776;2022-08-21T03:36:45;100606.13;;;21.78;53.03
72548;BME280;60570;50.848;6.776;2022-08-21T03:37:46;100600.53;;;21.82;52.66
72548;BME280;60570;50.848;6.776;2022-08-21T03:38:47;100608.19;;;21.81;52.95
72548;BME280;60570;50.848;6.776;2022-08-21T03:39:47;100609.81;;;21.75;52.85
72548;BME280;60570;50.848;6.776;2022-08-21T03:40:47;100607.81;;;21.72;52.82
72548;BME280;60570;50.848;6.776;2022-08-21T03:41:48;100610.63;;;21.69;53.30
72548;BME280;60570;50.848;6.776;2022-08-21T03:42:48;100607.81;;;21.72;53.29
72548;BME280;60570;50.848;6.776;2022-08-21T03:43:49;100610.63;;;21.72;52.93
72548;BME280;60570;50.848;6.776;2022-08-21T03:44:50;100607.78;;;21.76;53.10
72548;BME280;60570;50.848;6.776;2022-08-21T03:45:51;100608.59;;;21.73;52.70
72548;BME280;60570;50.848;6.776;2022-08-21T03:46:51;100604.16;;;21.72;53.12
72548;BME280;60570;50.848;6.776;2022-08-21T03:47:57;100604.19;;;21.68;53.04
72548;BME280;60570;50.848;6.776;2022-08-21T03:48:58;100613.06;;;21.70;52.91
72548;BME280;60570;50.848;6.776;2022-08-21T03:49:59;100612.25;;;21.70;53.08
72548;BME280;60570;50.848;6.776;2022-08-21T03:50:59;100608.97;;;21.75;52.82
72548;BME280;60570;50.848;6.776;2022-08-21T03:52:00;100608.59;;;21.69;53.20
72548;BME280;60570;50.848;6.776;2022-08-21T03:53:01;100609.03;;;21.68;53.05
72548;BME280;60570;50.848;6.776;2022-08-21T03:54:01;100609.03;;;21.68;53.18
72548;BME280;60570;50.848;6.776;2022-08-21T03:55:02;100605.34;;;21.71;52.64
72548;BME280;60570;50.848;6.776;2022-08-21T03:56:04;100609.81;;;21.65;52.77
72548;BME280;60570;50.848;6.776;2022-08-21T03:57:04;100603.38;;;21.64;52.81
72548;BME280;60570;50.848;6.776;2022-08-21T03:58:05;100605.38;;;21.64;53.09
72548;BME280;60570;50.848;6.776;2022-08-21T03:59:06;100603.78;;;21.66;52.76
72548;BME280;60570;50.848;6.776;2022-08-21T04:00:08;100610.22;;;21.70;52.63
72548;BME280;60570;50.848;6.776;2022-08-21T04:01:11;100604.19;;;21.68;52.74
72548;BME280;60570;50.848;6.776;2022-08-21T04:02:13;100602.56;;;21.64;52.77
72548;BME280;60570;50.848;6.776;2022-08-21T04:03:17;100611.84;;;21.68;52.95
72548;BME280;60570;50.848;6.776;2022-08-21T04:04:18;100607.38;;;21.67;52.83
72548;BME280;60570;50.848;6.776;2022-08-21T04:05:19;100608.19;;;21.71;52.47
72548;BME280;60570;50.848;6.776;2022-08-21T04:06:30;100605.78;;;21.66;52.80
72548;BME280;60570;50.848;6.776;2022-08-21T04:07:31;100609.84;;;21.61;52.72
72548;BME280;60570;50.848;6.776;2022-08-21T04:08:32;100613.50;;;21.58;53.08
72548;BME280;60570;50.848;6.776;2022-08-21T04:09:32;100614.28;;;21.62;52.81
72548;BME280;60570;50.848;6.776;2022-08-21T04:10:35;100619.53;;;21.60;52.83
72548;BME280;60570;50.848;6.776;2022-08-21T04:11:36;100617.13;;;21.59;52.74
72548;BME280;60570;50.848;6.776;2022-08-21T04:12:37;100613.91;;;21.57;52.53
72548;BME280;60570;50.848;6.776;2022-08-21T04:13:38;100619.56;;;21.57;52.72
72548;BME280;60570;50.848;6.776;2022-08-21T04:14:38;100619.53;;;21.60;52.63
72548;BME280;60570;50.848;6.776;2022-08-21T04:15:39;100620.75;;;21.56;52.94
72548;BME280;60570;50.848;6.776;2022-08-21T04:16:42;100621.56;;;21.56;53.03
72548;BME280;60570;50.848;6.776;2022-08-21T04:17:43;100624.41;;;21.56;52.98
72548;BME280;60570;50.848;6.776;2022-08-21T04:18:43;100636.91;;;21.52;52.77
72548;BME280;60570;50.848;6.776;2022-08-21T04:19:44;100644.59;;;21.55;53.08
72548;BME280;60570;50.848;6.776;2022-08-21T04:20:48;100638.53;;;21.53;52.85
72548;BME280;60570;50.848;6.776;2022-08-21T04:21:50;100636.50;;;21.53;52.81
72548;BME280;60570;50.848;6.776;2022-08-21T04:22:50;100640.16;;;21.50;52.75
72548;BME280;60570;50.848;6.776;2022-08-21T04:23:54;100641.38;;;21.53;52.99
72548;BME280;60570;50.848;6.776;2022-08-21T04:24:55;100644.19;;;21.56;52.78
72548;BME280;60570;50.848;6.776;2022-08-21T04:25:56;100645.41;;;21.52;52.75
72548;BME280;60570;50.848;6.776;2022-08-21T04:26:57;100641.34;;;21.49;52.85
72548;BME280;60570;50.848;6.776;2022-08-21T04:27:57;100645.03;;;21.42;52.87
72548;BME280;60570;50.848;6.776;2022-08-21T04:28:58;100639.78;;;21.45;52.97
72548;BME280;60570;50.848;6.776;2022-08-21T04:29:58;100634.09;;;21.48;52.88
72548;BME280;60570;50.848;6.776;2022-08-21T04:31:00;100635.28;;;21.47;52.72
72548;BME280;60570;50.848;6.776;2022-08-21T04:32:00;100640.16;;;21.54;52.57
72548;BME280;60570;50.848;6.776;2022-08-21T04:33:01;100636.13;;;21.44;52.74
72548;BME280;60570;50.848;6.776;2022-08-21T04:34:03;100640.97;;;21.43;52.95
72548;BME280;60570;50.848;6.776;2022-08-21T04:35:08;100644.59;;;21.44;52.94
72548;BME280;60570;50.848;6.776;2022-08-21T04:36:09;100638.13;;;21.47;52.63
72548;BME280;60570;50.848;6.776;2022-08-21T04:37:09;100645.81;;;21.39;52.68
72548;BME280;60570;50.848;6.776;2022-08-21T04:38:10;100644.19;;;21.42;52.80
72548;BME280;60570;50.848;6.776;2022-08-21T04:39:10;100638.16;;;21.36;53.04
72548;BME280;60570;50.848;6.776;2022-08-21T04:40:13;100637.75;;;21.38;53.02
72548;BME280;60570;50.848;6.776;2022-08-21T04:41:14;100641.78;;;21.33;53.06
72548;BME280;60570;50.848;6.776;2022-08-21T04:42:14;100639.75;;;21.37;52.83
72548;BME280;60570;50.848;6.776;2022-08-21T04:43:15;100639.38;;;21.39;52.57
72548;BME280;60570;50.848;6.776;2022-08-21T04:44:15;100643.41;;;21.34;52.81
72548;BME280;60570;50.848;6.776;2022-08-21T04:45:29;100641.81;;;21.37;52.86
72548;BME280;60570;50.848;6.776;2022-08-21T04:46:30;100651.06;;;21.37;52.71
72548;BME280;60570;50.848;6.776;2022-08-21T04:47:30;100645.41;;;21.37;52.93
72548;BME280;60570;50.848;6.776;2022-08-21T04:48:31;100647.84;;;21.32;52.94
72548;BME280;60570;50.848;6.776;2022-08-21T04:49:33;100639.78;;;21.30;52.83
72548;BME280;60570;50.848;6.776;2022-08-21T04:50:42;100650.66;;;21.35;52.65
72548;BME280;60570;50.848;6.776;2022-08-21T04:51:45;100648.25;;;21.30;53.10
72548;BME280;60570;50.848;6.776;2022-08-21T04:52:49;100644.59;;;21.33;52.73
72548;BME280;60570;50.848;6.776;2022-08-21T04:53:54;100653.91;;;21.34;52.85
72548;BME280;60570;50.848;6.776;2022-08-21T04:54:55;100650.66;;;21.32;52.62
72548;BME280;60570;50.848;6.776;2022-08-21T04:55:56;100655.53;;;21.35;52.75
72548;BME280;60570;50.848;6.776;2022-08-21T04:57:02;100656.72;;;21.34;52.75
72548;BME280;60570;50.848;6.776;2022-08-21T04:58:06;100647.44;;;21.30;52.78
72548;BME280;60570;50.848;6.776;2022-08-21T04:59:25;100646.25;;;21.31;52.68
72548;BME280;60570;50.848;6.776;2022-08-21T05:00:26;100646.22;;;21.38;52.48
72548;BME280;60570;50.848;6.776;2022-08-21T05:01:27;100651.47;;;21.32;52.89
72548;BME280;60570;50.848;6.776;2022-08-21T05:02:29;100653.09;;;21.30;52.82
72548;BME280;60570;50.848;6.776;2022-08-21T05:03:34;100654.31;;;21.29;52.55
72548;BME280;60570;50.848;6.776;2022-08-21T05:04:40;100643.81;;;21.29;52.53
72548;BME280;60570;50.848;6.776;2022-08-21T05:05:42;100649.47;;;21.26;52.69
72548;BME280;60570;50.848;6.776;2022-08-21T05:06:45;100645.81;;;21.22;53.07
72548;BME280;60570;50.848;6.776;2022-08-21T05:07:46;100646.22;;;21.24;52.99
72548;BME280;60570;50.848;6.776;2022-08-21T05:08:48;100647.84;;;21.25;52.52
72548;BME280;60570;50.848;6.776;2022-08-21T05:09:52;100652.69;;;21.21;52.64
72548;BME280;60570;50.848;6.776;2022-08-21T05:10:54;100649.47;;;21.19;53.02
72548;BME280;60570;50.848;6.776;2022-08-21T05:11:55;100645.81;;;21.18;52.83
72548;BME280;60570;50.848;6.776;2022-08-21T05:12:56;100643.00;;;21.15;52.84
72548;BME280;60570;50.848;6.776;2022-08-21T05:13:56;100647.06;;;21.14;53.00
72548;BME280;60570;50.848;6.776;2022-08-21T05:14:57;100646.66;;;21.19;52.50
72548;BME280;60570;50.848;6.776;2022-08-21T05:15:57;100644.22;;;21.21;52.66
72548;BME280;60570;50.848;6.776;2022-08-21T05:16:59;100645.84;;;21.15;52.89
72548;BME280;60570;50.848;6.776;2022-08-21T05:17:59;100650.28;;;21.16;52.66
72548;BME280;60570;50.848;6.776;2022-08-21T05:18:59;100648.66;;;21.18;52.95
72548;BME280;60570;50.848;6.776;2022-08-21T05:20:00;100644.63;;;21.16;52.82
72548;BME280;60570;50.848;6.776;2022-08-21T05:21:02;100647.47;;;21.16;52.69
72548;BME280;60570;50.848;6.776;2022-08-21T05:22:03;100648.66;;;21.11;52.65
72548;BME280;60570;50.848;6.776;2022-08-21T05:23:08;100643.81;;;21.08;52.89
72548;BME280;60570;50.848;6.776;2022-08-21T05:24:13;100643.81;;;21.08;52.98